createdAt,value
2022-10-08T00:00:58.944Z,8.48
2022-10-08T00:03:29.578Z,12.68
2022-10-08T00:06:00.456Z,14.40
2022-10-08T00:08:29.171Z,9.68
2022-10-08T00:10:58.304Z,15.35
2022-10-08T00:13:26.492Z,10.68
2022-10-08T00:15:54.125Z,11.02
2022-10-08T00:18:21.682Z,11.40
2022-10-08T00:20:52.074Z,11.80
2022-10-08T00:23:21.750Z,10.15
2022-10-08T00:25:48.282Z,16.63
2022-10-08T00:28:14.835Z,8.70
2022-10-08T00:30:41.690Z,10.55
2022-10-08T00:33:10.098Z,9.65
2022-10-08T00:35:40.698Z,11.25
2022-10-08T00:38:07.766Z,10.45
2022-10-08T00:40:44.959Z,9.90
2022-10-08T00:43:16.580Z,14.30
2022-10-08T00:45:48.643Z,7.15
2022-10-08T00:48:25.492Z,11.95
2022-10-08T00:50:52.386Z,8.75
2022-10-08T00:53:18.863Z,15.50
2022-10-08T00:55:45.402Z,13.15
2022-10-08T00:58:16.664Z,11.35
2022-10-08T01:00:44.677Z,9.55
2022-10-08T01:03:14.310Z,10.45
2022-10-08T01:05:40.793Z,13.88
2022-10-08T01:08:26.376Z,10.82
2022-10-08T01:11:26.852Z,12.40
2022-10-08T01:14:32.105Z,9.07
2022-10-08T01:17:16.791Z,12.05
2022-10-08T01:20:16.802Z,7.75
2022-10-08T01:23:25.466Z,11.70
2022-10-08T01:25:55.800Z,9.73
2022-10-08T01:28:44.874Z,10.60
2022-10-08T01:31:29.507Z,13.02
2022-10-08T01:34:03.366Z,16.52
2022-10-08T01:36:36.903Z,13.18
2022-10-08T01:39:08.829Z,17.27
2022-10-08T01:41:36.066Z,9.73
2022-10-08T01:44:13.679Z,12.18
2022-10-08T01:46:43.181Z,14.70
2022-10-08T01:49:17.565Z,15.38
2022-10-08T01:52:33.715Z,13.73
2022-10-08T01:55:08.195Z,17.75
2022-10-08T01:57:38.107Z,14.20
2022-10-08T02:00:10.770Z,11.65
2022-10-08T02:02:37.490Z,16.88
2022-10-08T02:05:05.245Z,12.02
2022-10-08T02:07:35.833Z,16.58
2022-10-08T02:10:21.493Z,15.10
2022-10-08T02:12:48.496Z,17.63
2022-10-08T02:15:29.076Z,15.23
2022-10-08T02:18:16.270Z,12.45
2022-10-08T02:20:52.554Z,14.02
2022-10-08T02:23:37.709Z,17.55
2022-10-08T02:26:08.144Z,12.82
2022-10-08T02:28:57.997Z,12.60
2022-10-08T02:31:42.932Z,14.15
2022-10-08T02:34:18.488Z,12.50
2022-10-08T02:36:51.453Z,16.33
2022-10-08T02:39:20.902Z,19.08
2022-10-08T02:41:52.237Z,14.60
2022-10-08T02:44:33.594Z,17.08
2022-10-08T02:47:04.466Z,17.00
2022-10-08T02:49:40.036Z,14.18
2022-10-08T02:52:09.063Z,10.98
2022-10-08T02:54:42.247Z,9.70
2022-10-08T02:57:23.786Z,16.38
2022-10-08T02:59:50.969Z,13.48
2022-10-08T03:02:27.865Z,16.20
2022-10-08T03:04:59.430Z,15.98
2022-10-08T03:07:29.995Z,13.55
2022-10-08T03:09:58.790Z,18.50
2022-10-08T03:12:26.191Z,16.60
2022-10-08T03:14:52.759Z,12.40
2022-10-08T03:17:27.734Z,14.90
2022-10-08T03:19:54.692Z,10.20
2022-10-08T03:22:21.235Z,14.90
2022-10-08T03:24:48.194Z,10.88
2022-10-08T03:27:14.810Z,15.95
2022-10-08T03:29:41.349Z,14.48
2022-10-08T03:32:08.526Z,13.77
2022-10-08T03:34:35.009Z,14.82
2022-10-08T03:37:01.583Z,13.02
2022-10-08T03:39:28.052Z,11.43
2022-10-08T03:41:54.539Z,17.42
2022-10-08T03:44:21.115Z,17.17
2022-10-08T03:46:47.601Z,15.32
2022-10-08T03:49:14.080Z,15.25
2022-10-08T03:51:40.684Z,17.70
2022-10-08T03:54:07.150Z,12.50
2022-10-08T03:56:34.424Z,13.10
2022-10-08T03:59:03.766Z,12.10
2022-10-08T04:01:30.302Z,12.38
2022-10-08T04:03:56.848Z,13.20
2022-10-08T04:06:23.438Z,14.25
2022-10-08T04:08:50.164Z,11.75
2022-10-08T04:11:17.704Z,15.52
2022-10-08T04:13:44.743Z,16.55
2022-10-08T04:16:17.126Z,14.90
2022-10-08T04:18:44.879Z,12.65
2022-10-08T04:21:14.653Z,10.73
2022-10-08T04:23:42.400Z,13.48
2022-10-08T04:26:10.544Z,14.50
2022-10-08T04:28:39.319Z,13.30
2022-10-08T04:31:07.752Z,14.27
2022-10-08T04:33:35.748Z,9.70
2022-10-08T04:36:17.238Z,14.07
2022-10-08T04:38:44.793Z,14.68
2022-10-08T04:41:17.023Z,15.02
2022-10-08T04:43:44.911Z,15.43
2022-10-08T04:46:14.509Z,14.93
2022-10-08T04:48:46.604Z,12.23
2022-10-08T04:51:13.414Z,13.82
2022-10-08T04:53:39.898Z,12.65
2022-10-08T04:56:17.941Z,13.80
2022-10-08T04:58:45.004Z,17.05
2022-10-08T05:01:14.720Z,11.30
2022-10-08T05:03:47.568Z,20.05
2022-10-08T05:06:15.634Z,16.35
2022-10-08T05:08:42.543Z,16.60
2022-10-08T05:11:09.595Z,16.10
2022-10-08T05:13:36.873Z,18.13
2022-10-08T05:16:08.965Z,12.05
2022-10-08T05:18:36.742Z,14.40
2022-10-08T05:21:11.765Z,15.52
2022-10-08T05:23:38.464Z,22.02
2022-10-08T05:26:46.658Z,17.42
2022-10-08T05:29:12.841Z,15.60
2022-10-08T05:31:39.819Z,15.82
2022-10-08T05:34:06.357Z,13.88
2022-10-08T05:36:34.240Z,12.75
2022-10-08T05:39:02.342Z,13.32
2022-10-08T05:41:31.326Z,12.30
2022-10-08T05:43:59.088Z,15.75
2022-10-08T05:46:27.844Z,9.18
2022-10-08T05:48:55.804Z,11.38
2022-10-08T05:51:23.353Z,14.77
2022-10-08T05:53:52.258Z,11.20
2022-10-08T05:56:23.203Z,15.70
2022-10-08T05:58:50.979Z,16.33
2022-10-08T06:01:29.738Z,12.93
2022-10-08T06:03:58.957Z,15.00
2022-10-08T06:06:26.164Z,13.27
2022-10-08T06:08:58.203Z,15.27
2022-10-08T06:13:55.076Z,16.45
2022-10-08T06:16:22.447Z,13.45
2022-10-08T06:18:49.307Z,14.43
2022-10-08T06:21:24.359Z,16.08
2022-10-08T06:23:53.520Z,19.83
2022-10-08T06:26:22.164Z,12.95
2022-10-08T06:28:49.588Z,12.20
2022-10-08T06:31:17.528Z,15.80
2022-10-08T06:33:44.588Z,16.48
2022-10-08T06:36:14.130Z,8.38
2022-10-08T06:38:40.887Z,16.42
2022-10-08T06:41:07.679Z,10.52
2022-10-08T06:43:34.290Z,15.85
2022-10-08T06:46:04.606Z,16.25
2022-10-08T06:48:31.336Z,12.93
2022-10-08T06:51:02.905Z,12.50
2022-10-08T06:53:29.993Z,12.90
2022-10-08T06:56:00.881Z,14.15
2022-10-08T06:58:27.944Z,15.40
2022-10-08T07:01:14.012Z,15.75
2022-10-08T07:03:40.592Z,12.77
2022-10-08T07:06:10.005Z,15.63
2022-10-08T07:08:36.479Z,9.57
2022-10-08T07:11:14.929Z,14.50
2022-10-08T07:13:42.470Z,14.70
2022-10-08T07:16:20.752Z,12.75
2022-10-08T07:18:49.750Z,12.88
2022-10-08T07:21:18.190Z,12.75
2022-10-08T07:23:45.281Z,15.80
2022-10-08T07:26:15.834Z,11.40
2022-10-08T07:29:04.024Z,10.95
2022-10-08T07:31:33.583Z,12.40
2022-10-08T07:34:01.922Z,12.45
2022-10-08T07:36:30.072Z,12.65
2022-10-08T07:39:08.464Z,9.60
2022-10-08T07:41:35.086Z,9.48
2022-10-08T07:44:02.491Z,7.65
2022-10-08T07:46:31.128Z,8.75
2022-10-08T07:49:01.734Z,13.10
2022-10-08T07:51:31.431Z,7.93
2022-10-08T07:54:02.527Z,9.93
2022-10-08T07:56:29.888Z,6.82
2022-10-08T07:58:56.437Z,9.55
2022-10-08T08:01:29.436Z,6.93
2022-10-08T08:03:59.386Z,4.47
2022-10-08T08:06:26.135Z,6.93
2022-10-08T08:08:53.881Z,8.13
2022-10-08T08:11:22.845Z,6.97
2022-10-08T08:13:50.069Z,9.30
2022-10-08T08:16:22.742Z,9.40
2022-10-08T08:18:50.704Z,4.90
2022-10-08T08:21:20.123Z,4.20
2022-10-08T08:23:49.208Z,5.70
2022-10-08T08:26:29.446Z,7.05
2022-10-08T08:28:58.585Z,5.53
2022-10-08T08:31:34.366Z,5.05
2022-10-08T08:34:10.833Z,7.28
2022-10-08T08:36:42.892Z,6.15
2022-10-08T08:42:14.603Z,5.75
2022-10-08T08:44:43.680Z,5.45
2022-10-08T08:47:18.916Z,4.63
2022-10-08T08:49:52.291Z,7.28
2022-10-08T08:52:23.688Z,4.22
2022-10-08T08:54:53.185Z,6.60
2022-10-08T08:57:40.906Z,5.65
2022-10-08T09:00:16.256Z,4.63
2022-10-08T09:02:55.736Z,4.80
2022-10-08T09:05:25.184Z,4.40
2022-10-08T09:07:57.743Z,5.03
2022-10-08T09:10:35.300Z,4.78
2022-10-08T09:13:02.771Z,3.80
2022-10-08T09:15:36.222Z,5.05
2022-10-08T09:18:04.664Z,4.28
2022-10-08T09:20:31.754Z,6.00
2022-10-08T09:22:59.490Z,5.97
2022-10-08T09:25:32.833Z,4.75
2022-10-08T09:28:07.412Z,8.93
2022-10-08T09:30:39.348Z,6.30
2022-10-08T09:35:53.902Z,6.13
2022-10-08T09:38:23.436Z,6.18
2022-10-08T09:41:03.631Z,4.85
2022-10-08T09:43:31.922Z,6.40
2022-10-08T09:45:58.632Z,5.38
2022-10-08T09:48:29.529Z,11.18
2022-10-08T09:50:59.075Z,7.72
2022-10-08T09:53:43.761Z,9.30
2022-10-08T09:56:12.541Z,6.15
2022-10-08T09:58:57.050Z,7.13
2022-10-08T10:01:25.466Z,5.13
2022-10-08T10:04:00.608Z,5.20
2022-10-08T10:06:30.418Z,7.60
2022-10-08T10:09:01.949Z,8.63
2022-10-08T10:11:48.258Z,4.82
2022-10-08T10:14:29.260Z,6.18
2022-10-08T10:17:02.528Z,8.38
2022-10-08T10:19:35.308Z,7.43
2022-10-08T10:22:09.584Z,4.63
2022-10-08T10:24:53.364Z,4.63
2022-10-08T10:27:33.143Z,6.38
2022-10-08T10:30:06.241Z,3.53
2022-10-08T10:32:49.195Z,4.82
2022-10-08T10:35:20.922Z,4.93
2022-10-08T10:37:52.367Z,3.83
2022-10-08T10:40:35.633Z,7.07
2022-10-08T10:43:28.018Z,3.70
2022-10-08T10:48:24.884Z,4.88
2022-10-08T10:51:03.479Z,8.27
2022-10-08T10:53:47.149Z,7.88
2022-10-08T10:56:19.950Z,5.93
2022-10-08T10:59:13.775Z,4.90
2022-10-08T11:02:11.305Z,4.22
2022-10-08T11:05:01.402Z,6.30
2022-10-08T11:08:07.503Z,7.50
2022-10-08T11:11:00.368Z,8.15
2022-10-08T11:14:02.242Z,8.73
2022-10-08T11:16:36.300Z,7.32
2022-10-08T11:19:06.137Z,6.82
2022-10-08T11:22:03.689Z,5.90
2022-10-08T11:24:56.904Z,7.85
2022-10-08T11:27:47.678Z,5.95
2022-10-08T11:30:14.370Z,10.93
2022-10-08T11:32:45.415Z,7.22
2022-10-08T11:35:12.026Z,8.23
2022-10-08T11:37:55.294Z,9.48
2022-10-08T11:40:44.701Z,9.52
2022-10-08T11:43:17.234Z,10.27
2022-10-08T11:45:46.105Z,8.15
2022-10-08T11:48:37.518Z,7.55
2022-10-08T11:51:18.951Z,7.47
2022-10-08T11:54:16.592Z,8.55
2022-10-08T11:56:46.602Z,5.38
2022-10-08T11:59:32.946Z,8.38
2022-10-08T12:02:21.727Z,8.13
2022-10-08T12:04:49.589Z,9.35
2022-10-08T12:07:25.179Z,6.75
2022-10-08T12:10:06.689Z,10.82
2022-10-08T12:12:51.289Z,9.30
2022-10-08T12:15:24.045Z,7.93
2022-10-08T12:17:51.733Z,10.18
2022-10-08T12:20:38.345Z,7.95
2022-10-08T12:23:04.811Z,11.27
2022-10-08T12:25:42.506Z,7.00
2022-10-08T12:28:20.941Z,12.40
2022-10-08T12:30:52.616Z,11.15
2022-10-08T12:33:20.598Z,7.97
2022-10-08T12:36:13.991Z,6.80
2022-10-08T12:39:06.030Z,8.75
2022-10-08T12:41:51.196Z,11.82
2022-10-08T12:44:26.512Z,11.82
2022-10-08T12:47:06.357Z,9.27
2022-10-08T12:49:43.476Z,9.48
2022-10-08T12:52:13.092Z,11.15
2022-10-08T12:54:46.508Z,10.45
2022-10-08T12:57:16.797Z,10.05
2022-10-08T12:59:43.500Z,9.65
2022-10-08T13:02:37.687Z,7.22
2022-10-08T13:05:25.464Z,9.02
2022-10-08T13:07:52.266Z,11.82
2022-10-08T13:10:25.363Z,12.15
2022-10-08T13:13:06.584Z,10.77
2022-10-08T13:15:34.733Z,8.17
2022-10-08T13:18:13.830Z,7.78
2022-10-08T13:20:55.494Z,8.57
2022-10-08T13:23:32.191Z,9.23
2022-10-08T13:26:00.690Z,7.82
2022-10-08T13:28:55.650Z,11.52
2022-10-08T13:31:23.783Z,8.13
2022-10-08T13:33:50.828Z,8.48
2022-10-08T13:36:22.783Z,7.65
2022-10-08T13:41:25.191Z,6.75
2022-10-08T13:43:51.677Z,10.00
2022-10-08T13:46:18.338Z,9.30
2022-10-08T13:48:45.244Z,10.10
2022-10-08T13:51:11.895Z,8.85
2022-10-08T13:53:42.013Z,4.32
2022-10-08T13:56:08.485Z,5.43
2022-10-08T13:58:35.022Z,5.65
2022-10-08T14:01:01.585Z,5.18
2022-10-08T14:03:28.075Z,8.65
2022-10-08T14:05:54.604Z,5.57
2022-10-08T14:08:27.750Z,6.00
2022-10-08T14:10:58.104Z,6.50
2022-10-08T14:13:25.458Z,5.63
2022-10-08T14:15:52.099Z,5.90
2022-10-08T14:18:18.690Z,4.43
2022-10-08T14:20:45.163Z,4.15
2022-10-08T14:23:14.732Z,5.95
2022-10-08T14:25:41.272Z,7.30
2022-10-08T14:28:07.955Z,4.47
2022-10-08T14:30:34.564Z,5.13
2022-10-08T14:33:01.142Z,7.25
2022-10-08T14:35:27.636Z,3.85
2022-10-08T14:37:54.122Z,4.20
2022-10-08T14:40:22.453Z,4.75
2022-10-08T14:42:50.105Z,9.45
2022-10-08T14:45:17.471Z,6.13
2022-10-08T14:47:43.939Z,5.00
2022-10-08T14:50:10.558Z,3.95
2022-10-08T14:52:41.753Z,9.98
2022-10-08T14:55:10.810Z,8.18
2022-10-08T14:57:37.260Z,7.25
2022-10-08T15:00:04.920Z,13.93
2022-10-08T15:02:31.704Z,6.85
2022-10-08T15:04:58.235Z,7.90
2022-10-08T15:07:24.781Z,7.18
2022-10-08T15:09:51.631Z,5.13
2022-10-08T15:12:18.069Z,6.22
2022-10-08T15:14:44.563Z,6.95
2022-10-08T15:17:11.016Z,5.03
2022-10-08T15:19:37.533Z,6.05
2022-10-08T15:22:04.051Z,5.57
2022-10-08T15:24:30.497Z,5.90
2022-10-08T15:26:57.078Z,5.45
2022-10-08T15:29:23.583Z,7.20
2022-10-08T15:31:50.933Z,6.45
2022-10-08T15:34:19.529Z,4.90
2022-10-08T15:36:46.336Z,6.97
2022-10-08T15:39:15.200Z,5.20
2022-10-08T15:41:44.330Z,7.93
2022-10-08T15:44:14.010Z,8.10
2022-10-08T15:46:40.498Z,7.38
2022-10-08T15:49:07.065Z,4.55
2022-10-08T15:51:36.858Z,5.90
2022-10-08T15:54:03.647Z,6.03
2022-10-08T15:56:30.223Z,6.25
2022-10-08T15:58:58.491Z,5.00
2022-10-08T16:01:25.736Z,5.75
2022-10-08T16:03:54.377Z,4.78
2022-10-08T16:06:23.748Z,8.07
2022-10-08T16:08:51.160Z,5.43
2022-10-08T16:11:26.524Z,3.40
2022-10-08T16:14:09.614Z,6.85
2022-10-08T16:16:37.188Z,4.20
2022-10-08T16:19:06.439Z,8.38
2022-10-08T16:21:35.471Z,6.72
2022-10-08T16:24:02.213Z,6.68
2022-10-08T16:26:31.804Z,8.35
2022-10-08T16:29:00.731Z,4.70
2022-10-08T16:31:29.964Z,6.20
2022-10-08T16:34:01.324Z,7.57
2022-10-08T16:36:29.802Z,6.43
2022-10-08T16:38:57.673Z,6.20
2022-10-08T16:41:26.875Z,10.13
2022-10-08T16:43:55.698Z,7.90
2022-10-08T16:46:27.921Z,6.63
2022-10-08T16:49:11.811Z,9.52
2022-10-08T16:51:38.729Z,9.45
2022-10-08T16:54:07.873Z,7.72
2022-10-08T16:56:37.481Z,5.38
2022-10-08T16:59:10.181Z,8.25
2022-10-08T17:01:38.341Z,5.43
2022-10-08T17:04:06.613Z,7.53
2022-10-08T17:06:34.024Z,5.80
2022-10-08T17:09:00.479Z,6.40
2022-10-08T17:11:27.021Z,6.03
2022-10-08T17:13:56.224Z,6.25
2022-10-08T17:16:24.910Z,6.63
2022-10-08T17:18:56.122Z,6.25
2022-10-08T17:21:23.389Z,9.07
2022-10-08T17:23:49.988Z,8.40
2022-10-08T17:26:19.497Z,4.75
2022-10-08T17:28:48.100Z,6.20
2022-10-08T17:31:18.476Z,8.32
2022-10-08T17:33:44.987Z,8.55
2022-10-08T17:36:12.727Z,6.75
2022-10-08T17:38:41.659Z,8.30
2022-10-08T17:41:23.164Z,8.10
2022-10-08T17:43:50.459Z,7.55
2022-10-08T17:46:18.446Z,6.45
2022-10-08T17:48:45.481Z,5.68
2022-10-08T17:51:14.501Z,5.00
2022-10-08T17:53:41.933Z,8.23
2022-10-08T17:56:11.214Z,7.03
2022-10-08T17:58:38.760Z,7.10
2022-10-08T18:01:10.600Z,6.22
2022-10-08T18:03:38.665Z,6.85
2022-10-08T18:06:07.137Z,4.53
2022-10-08T18:08:33.957Z,4.88
2022-10-08T18:11:05.856Z,7.82
2022-10-08T18:13:33.987Z,8.88
2022-10-08T18:16:13.188Z,10.02
2022-10-08T18:18:40.793Z,10.18
2022-10-08T18:21:07.840Z,6.38
2022-10-08T18:23:36.303Z,9.50
2022-10-08T18:26:22.457Z,6.25
2022-10-08T18:28:51.465Z,6.60
2022-10-08T18:31:19.179Z,5.57
2022-10-08T18:33:47.673Z,7.78
2022-10-08T18:36:23.626Z,5.40
2022-10-08T18:39:01.501Z,10.77
2022-10-08T18:41:33.914Z,4.97
2022-10-08T18:44:00.989Z,8.52
2022-10-08T18:46:28.796Z,12.55
2022-10-08T18:48:55.836Z,12.10
2022-10-08T18:51:27.353Z,13.48
2022-10-08T18:53:56.282Z,10.00
2022-10-08T18:56:28.857Z,10.10
2022-10-08T18:58:57.277Z,6.22
2022-10-08T19:01:26.797Z,6.93
2022-10-08T19:03:56.332Z,5.85
2022-10-08T19:06:25.600Z,5.97
2022-10-08T19:08:52.660Z,7.38
2022-10-08T19:11:21.863Z,7.13
2022-10-08T19:13:49.139Z,7.45
2022-10-08T19:16:16.206Z,5.65
2022-10-08T19:18:52.259Z,8.77
2022-10-08T19:21:19.440Z,5.97
2022-10-08T19:23:45.999Z,9.02
2022-10-08T19:26:14.316Z,8.35
2022-10-08T19:28:46.244Z,9.60
2022-10-08T19:33:39.329Z,9.35
2022-10-08T19:36:06.169Z,9.73
2022-10-08T19:38:32.652Z,7.63
2022-10-08T19:40:59.171Z,8.32
2022-10-08T19:43:25.657Z,6.53
2022-10-08T19:45:52.168Z,7.18
2022-10-08T19:48:18.639Z,7.63
2022-10-08T19:50:45.161Z,6.43
2022-10-08T19:53:11.662Z,7.97
2022-10-08T19:55:38.399Z,8.68
2022-10-08T19:58:04.972Z,7.18
2022-10-08T20:00:31.499Z,9.35
2022-10-08T20:02:58.058Z,6.45
2022-10-08T20:05:24.538Z,7.90
2022-10-08T20:07:51.047Z,7.10
2022-10-08T20:10:17.575Z,9.13
2022-10-08T20:12:44.481Z,8.40
2022-10-08T20:15:11.183Z,6.35
2022-10-08T20:17:37.834Z,6.90
2022-10-08T20:20:27.810Z,11.20
2022-10-08T20:22:51.794Z,7.70
2022-10-08T20:25:20.432Z,9.75
2022-10-08T20:27:47.918Z,4.47
2022-10-08T20:30:16.572Z,7.70
2022-10-08T20:32:43.284Z,7.32
2022-10-08T20:35:10.005Z,9.05
2022-10-08T20:37:36.631Z,6.97
2022-10-08T20:40:03.301Z,8.43
2022-10-08T20:42:32.090Z,10.13
2022-10-08T20:44:58.827Z,9.38
2022-10-08T20:47:25.279Z,11.55
2022-10-08T20:49:51.830Z,6.85
2022-10-08T20:52:18.270Z,13.40
2022-10-08T20:54:44.798Z,7.45
2022-10-08T20:57:11.266Z,9.65
2022-10-08T20:59:37.785Z,7.38
2022-10-08T21:02:05.565Z,6.53
2022-10-08T21:04:32.094Z,11.27
2022-10-08T21:06:58.531Z,7.13
2022-10-08T21:09:25.023Z,8.50
2022-10-08T21:11:53.555Z,7.32
2022-10-08T21:14:22.521Z,11.65
2022-10-08T21:16:49.296Z,10.93
2022-10-08T21:19:18.988Z,8.48
2022-10-08T21:21:45.555Z,7.90
2022-10-08T21:24:12.088Z,12.63
2022-10-08T21:26:40.737Z,9.02
2022-10-08T21:29:10.189Z,7.05
2022-10-08T21:31:38.462Z,6.05
2022-10-08T21:34:05.850Z,11.30
2022-10-08T21:36:36.879Z,9.52
2022-10-08T21:39:05.415Z,10.57
2022-10-08T21:41:34.636Z,8.70
2022-10-08T21:44:03.550Z,7.93
2022-10-08T21:46:32.464Z,11.13
2022-10-08T21:49:01.928Z,9.73
2022-10-08T21:51:30.838Z,7.00
2022-10-08T21:53:59.740Z,7.90
2022-10-08T21:56:29.045Z,8.40
2022-10-08T21:59:00.896Z,7.28
2022-10-08T22:01:28.700Z,5.45
2022-10-08T22:03:57.040Z,7.93
2022-10-08T22:06:27.283Z,9.55
2022-10-08T22:09:00.501Z,13.68
2022-10-08T22:11:27.265Z,6.32
2022-10-08T22:13:53.891Z,4.63
2022-10-08T22:16:22.937Z,4.82
2022-10-08T22:18:49.562Z,8.57
2022-10-08T22:21:26.184Z,6.88
2022-10-08T22:23:53.119Z,6.22
2022-10-08T22:26:23.590Z,10.90
2022-10-08T22:28:51.124Z,8.77
2022-10-08T22:31:19.486Z,6.07
2022-10-08T22:33:46.994Z,8.35
2022-10-08T22:36:28.413Z,6.43
2022-10-08T22:38:55.855Z,8.43
2022-10-08T22:41:25.196Z,9.40
2022-10-08T22:43:52.238Z,7.38
2022-10-08T22:46:26.893Z,4.63
2022-10-08T22:48:58.409Z,11.73
2022-10-08T22:51:25.069Z,10.52
2022-10-08T22:53:52.027Z,6.28
2022-10-08T22:56:21.510Z,7.43
2022-10-08T22:58:48.692Z,10.95
2022-10-08T23:01:18.636Z,7.03
2022-10-08T23:03:45.581Z,8.82
2022-10-08T23:06:19.596Z,8.27
2022-10-08T23:08:48.001Z,9.68
2022-10-08T23:11:16.066Z,9.07
2022-10-08T23:13:45.749Z,9.48
2022-10-08T23:16:14.342Z,13.77
2022-10-08T23:18:44.194Z,11.98
2022-10-08T23:21:16.645Z,6.45
2022-10-08T23:23:47.664Z,12.07
2022-10-08T23:26:15.883Z,11.52
2022-10-08T23:28:43.764Z,8.15
2022-10-08T23:31:16.519Z,7.82
2022-10-08T23:33:45.548Z,11.38
2022-10-08T23:36:18.245Z,8.15
2022-10-08T23:38:47.873Z,9.70
2022-10-08T23:41:14.560Z,8.13
2022-10-08T23:43:43.368Z,10.23
2022-10-08T23:46:12.255Z,11.77
2022-10-08T23:48:39.199Z,10.00
2022-10-08T23:51:06.856Z,8.05
2022-10-08T23:53:34.512Z,12.23
2022-10-08T23:56:04.480Z,8.63
2022-10-08T23:58:31.075Z,17.08
